sensor_id;sensor_type;location;lat;lon;timestamp;temperature;humidity
33699;DHT22;20032;52.436;13.312;2023-10-09T00:01:40;11.60;99.90
33699;DHT22;20032;52.436;13.312;2023-10-09T00:04:06;11.40;99.90
33699;DHT22;20032;52.436;13.312;2023-10-09T00:06:36;11.40;99.90
33699;DHT22;20032;52.436;13.312;2023-10-09T00:09:05;11.40;99.90
33699;DHT22;20032;52.436;13.312;2023-10-09T00:11:51;11.30;99.90
33699;DHT22;20032;52.436;13.312;2023-10-09T00:14:25;11.30;99.90
33699;DHT22;20032;52.436;13.312;2023-10-09T00:16:51;11.30;99.90
33699;DHT22;20032;52.436;13.312;2023-10-09T00:19:37;11.20;99.90
33699;DHT22;20032;52.436;13.312;2023-10-09T00:22:03;11.10;99.90
33699;DHT22;20032;52.436;13.312;2023-10-09T00:24:44;11.10;99.90
33699;DHT22;20032;52.436;13.312;2023-10-09T00:27:11;11.00;99.90
33699;DHT22;20032;52.436;13.312;2023-10-09T00:29:38;10.90;99.90
33699;DHT22;20032;52.436;13.312;2023-10-09T00:32:10;10.90;99.90
33699;DHT22;20032;52.436;13.312;2023-10-09T00:34:41;10.90;99.90
33699;DHT22;20032;52.436;13.312;2023-10-09T00:37:07;10.80;99.90
33699;DHT22;20032;52.436;13.312;2023-10-09T00:39:42;10.80;99.90
33699;DHT22;20032;52.436;13.312;2023-10-09T00:42:10;10.70;99.90
33699;DHT22;20032;52.436;13.312;2023-10-09T00:44:40;10.80;99.90
33699;DHT22;20032;52.436;13.312;2023-10-09T00:47:10;10.80;99.90
33699;DHT22;20032;52.436;13.312;2023-10-09T00:49:58;10.90;99.90
33699;DHT22;20032;52.436;13.312;2023-10-09T00:52:28;10.80;99.90
33699;DHT22;20032;52.436;13.312;2023-10-09T00:54:59;10.80;99.90
33699;DHT22;20032;52.436;13.312;2023-10-09T00:57:30;10.70;99.90
33699;DHT22;20032;52.436;13.312;2023-10-09T00:59:59;10.70;99.90
33699;DHT22;20032;52.436;13.312;2023-10-09T01:02:27;10.70;99.90
33699;DHT22;20032;52.436;13.312;2023-10-09T01:05:02;10.70;99.90
33699;DHT22;20032;52.436;13.312;2023-10-09T01:07:37;10.70;99.90
33699;DHT22;20032;52.436;13.312;2023-10-09T01:10:06;10.70;99.90
33699;DHT22;20032;52.436;13.312;2023-10-09T01:12:34;10.70;99.90
33699;DHT22;20032;52.436;13.312;2023-10-09T01:15:07;10.60;99.90
33699;DHT22;20032;52.436;13.312;2023-10-09T01:17:33;10.60;99.90
33699;DHT22;20032;52.436;13.312;2023-10-09T01:20:02;10.60;99.90
33699;DHT22;20032;52.436;13.312;2023-10-09T01:22:30;10.50;99.90
33699;DHT22;20032;52.436;13.312;2023-10-09T01:24:55;10.50;99.90
33699;DHT22;20032;52.436;13.312;2023-10-09T01:27:22;10.50;99.90
33699;DHT22;20032;52.436;13.312;2023-10-09T01:29:51;10.50;99.90
33699;DHT22;20032;52.436;13.312;2023-10-09T01:32:17;10.60;99.90
33699;DHT22;20032;52.436;13.312;2023-10-09T01:34:44;10.70;99.90
33699;DHT22;20032;52.436;13.312;2023-10-09T01:37:15;10.70;99.90
33699;DHT22;20032;52.436;13.312;2023-10-09T01:39:46;10.70;99.90
33699;DHT22;20032;52.436;13.312;2023-10-09T01:42:13;10.70;99.90
33699;DHT22;20032;52.436;13.312;2023-10-09T01:44:49;10.70;99.90
33699;DHT22;20032;52.436;13.312;2023-10-09T01:47:14;10.60;99.90
33699;DHT22;20032;52.436;13.312;2023-10-09T01:49:43;10.60;99.90
33699;DHT22;20032;52.436;13.312;2023-10-09T01:52:10;10.50;99.90
33699;DHT22;20032;52.436;13.312;2023-10-09T01:54:41;10.60;99.90
33699;DHT22;20032;52.436;13.312;2023-10-09T01:57:08;10.50;99.90
33699;DHT22;20032;52.436;13.312;2023-10-09T01:59:37;10.60;99.90
33699;DHT22;20032;52.436;13.312;2023-10-09T02:02:05;10.60;99.90
33699;DHT22;20032;52.436;13.312;2023-10-09T02:04:51;10.60;99.90
33699;DHT22;20032;52.436;13.312;2023-10-09T02:07:17;10.70;99.90
33699;DHT22;20032;52.436;13.312;2023-10-09T02:09:48;10.60;99.90
33699;DHT22;20032;52.436;13.312;2023-10-09T02:12:13;10.50;99.90
33699;DHT22;20032;52.436;13.312;2023-10-09T02:14:39;10.50;99.90
33699;DHT22;20032;52.436;13.312;2023-10-09T02:17:07;10.60;99.90
33699;DHT22;20032;52.436;13.312;2023-10-09T02:19:43;10.60;99.90
33699;DHT22;20032;52.436;13.312;2023-10-09T02:22:13;10.70;99.90
33699;DHT22;20032;52.436;13.312;2023-10-09T02:24:40;10.70;99.90
33699;DHT22;20032;52.436;13.312;2023-10-09T02:27:25;10.70;99.90
33699;DHT22;20032;52.436;13.312;2023-10-09T02:30:11;10.60;99.90
33699;DHT22;20032;52.436;13.312;2023-10-09T02:32:42;10.50;99.90
33699;DHT22;20032;52.436;13.312;2023-10-09T02:35:10;10.50;99.90
33699;DHT22;20032;52.436;13.312;2023-10-09T02:37:44;10.50;99.90
33699;DHT22;20032;52.436;13.312;2023-10-09T02:40:13;10.60;99.90
33699;DHT22;20032;52.436;13.312;2023-10-09T02:42:47;10.70;99.90
33699;DHT22;20032;52.436;13.312;2023-10-09T02:45:15;10.70;99.90
33699;DHT22;20032;52.436;13.312;2023-10-09T02:47:41;10.70;99.90
33699;DHT22;20032;52.436;13.312;2023-10-09T02:50:08;10.80;99.90
33699;DHT22;20032;52.436;13.312;2023-10-09T02:52:45;10.70;99.90
33699;DHT22;20032;52.436;13.312;2023-10-09T02:55:12;10.60;99.90
33699;DHT22;20032;52.436;13.312;2023-10-09T02:57:49;10.50;99.90
33699;DHT22;20032;52.436;13.312;2023-10-09T03:00:17;10.50;99.90
33699;DHT22;20032;52.436;13.312;2023-10-09T03:02:45;10.50;99.90
33699;DHT22;20032;52.436;13.312;2023-10-09T03:05:15;10.50;99.90
33699;DHT22;20032;52.436;13.312;2023-10-09T03:07:41;10.50;99.90
33699;DHT22;20032;52.436;13.312;2023-10-09T03:10:07;10.60;99.90
33699;DHT22;20032;52.436;13.312;2023-10-09T03:12:37;10.70;99.90
33699;DHT22;20032;52.436;13.312;2023-10-09T03:15:06;10.70;99.90
33699;DHT22;20032;52.436;13.312;2023-10-09T03:17:34;10.70;99.90
33699;DHT22;20032;52.436;13.312;2023-10-09T03:20:05;10.70;99.90
33699;DHT22;20032;52.436;13.312;2023-10-09T03:22:39;10.80;99.90
33699;DHT22;20032;52.436;13.312;2023-10-09T03:25:06;10.80;99.90
33699;DHT22;20032;52.436;13.312;2023-10-09T03:27:39;10.90;99.90
33699;DHT22;20032;52.436;13.312;2023-10-09T03:30:13;10.90;99.90
33699;DHT22;20032;52.436;13.312;2023-10-09T03:32:43;10.90;99.90
33699;DHT22;20032;52.436;13.312;2023-10-09T03:35:10;10.80;99.90
33699;DHT22;20032;52.436;13.312;2023-10-09T03:37:41;10.80;99.90
33699;DHT22;20032;52.436;13.312;2023-10-09T03:40:07;10.80;99.90
33699;DHT22;20032;52.436;13.312;2023-10-09T03:42:33;10.70;99.90
33699;DHT22;20032;52.436;13.312;2023-10-09T03:45:02;10.70;99.90
33699;DHT22;20032;52.436;13.312;2023-10-09T03:47:37;10.70;99.90
33699;DHT22;20032;52.436;13.312;2023-10-09T03:50:04;10.60;99.90
33699;DHT22;20032;52.436;13.312;2023-10-09T03:52:46;10.60;99.90
33699;DHT22;20032;52.436;13.312;2023-10-09T03:55:12;10.60;99.90
33699;DHT22;20032;52.436;13.312;2023-10-09T03:57:40;10.60;99.90
33699;DHT22;20032;52.436;13.312;2023-10-09T04:02:37;10.60;99.90
33699;DHT22;20032;52.436;13.312;2023-10-09T04:05:02;10.60;99.90
33699;DHT22;20032;52.436;13.312;2023-10-09T04:07:30;10.60;99.90
33699;DHT22;20032;52.436;13.312;2023-10-09T04:09:58;10.60;99.90
33699;DHT22;20032;52.436;13.312;2023-10-09T04:12:44;10.60;99.90
33699;DHT22;20032;52.436;13.312;2023-10-09T04:15:10;10.60;99.90
33699;DHT22;20032;52.436;13.312;2023-10-09T04:17:40;10.60;99.90
33699;DHT22;20032;52.436;13.312;2023-10-09T04:20:10;10.70;99.90
33699;DHT22;20032;52.436;13.312;2023-10-09T04:22:46;10.70;99.90
33699;DHT22;20032;52.436;13.312;2023-10-09T04:25:32;10.70;99.90
33699;DHT22;20032;52.436;13.312;2023-10-09T04:28:09;10.80;99.90
33699;DHT22;20032;52.436;13.312;2023-10-09T04:30:36;10.80;99.90
33699;DHT22;20032;52.436;13.312;2023-10-09T04:33:06;10.80;99.90
33699;DHT22;20032;52.436;13.312;2023-10-09T04:35:37;10.80;99.90
33699;DHT22;20032;52.436;13.312;2023-10-09T04:38:04;10.90;99.90
33699;DHT22;20032;52.436;13.312;2023-10-09T04:40:32;10.90;99.90
33699;DHT22;20032;52.436;13.312;2023-10-09T04:43:19;10.80;99.90
33699;DHT22;20032;52.436;13.312;2023-10-09T04:45:58;10.70;99.90
33699;DHT22;20032;52.436;13.312;2023-10-09T04:48:34;10.70;99.90
33699;DHT22;20032;52.436;13.312;2023-10-09T04:51:05;10.70;99.90
33699;DHT22;20032;52.436;13.312;2023-10-09T04:53:49;10.70;99.90
33699;DHT22;20032;52.436;13.312;2023-10-09T04:56:35;10.70;99.90
33699;DHT22;20032;52.436;13.312;2023-10-09T04:59:18;10.70;99.90
33699;DHT22;20032;52.436;13.312;2023-10-09T05:04:15;10.60;99.90
33699;DHT22;20032;52.436;13.312;2023-10-09T05:06:54;10.70;99.90
33699;DHT22;20032;52.436;13.312;2023-10-09T05:09:22;10.60;99.90
33699;DHT22;20032;52.436;13.312;2023-10-09T05:11:48;10.60;99.90
33699;DHT22;20032;52.436;13.312;2023-10-09T05:14:19;10.60;99.90
33699;DHT22;20032;52.436;13.312;2023-10-09T05:16:54;10.70;99.90
33699;DHT22;20032;52.436;13.312;2023-10-09T05:19:21;10.70;99.90
33699;DHT22;20032;52.436;13.312;2023-10-09T05:22:10;10.70;99.90
33699;DHT22;20032;52.436;13.312;2023-10-09T05:24:57;10.60;99.90
33699;DHT22;20032;52.436;13.312;2023-10-09T05:27:25;10.50;99.90
33699;DHT22;20032;52.436;13.312;2023-10-09T05:30:12;10.50;99.90
33699;DHT22;20032;52.436;13.312;2023-10-09T05:32:52;10.60;99.90
33699;DHT22;20032;52.436;13.312;2023-10-09T05:35:21;10.60;99.90
33699;DHT22;20032;52.436;13.312;2023-10-09T05:37:56;10.60;99.90
33699;DHT22;20032;52.436;13.312;2023-10-09T05:40:42;10.60;99.90
33699;DHT22;20032;52.436;13.312;2023-10-09T05:43:09;10.60;99.90
33699;DHT22;20032;52.436;13.312;2023-10-09T05:45:55;10.60;99.90
33699;DHT22;20032;52.436;13.312;2023-10-09T05:48:26;10.70;99.90
33699;DHT22;20032;52.436;13.312;2023-10-09T05:51:13;10.60;99.90
33699;DHT22;20032;52.436;13.312;2023-10-09T05:53:58;10.50;99.90
33699;DHT22;20032;52.436;13.312;2023-10-09T05:56:44;10.50;99.90
33699;DHT22;20032;52.436;13.312;2023-10-09T05:59:29;10.60;99.90
33699;DHT22;20032;52.436;13.312;2023-10-09T06:02:15;10.60;99.90
33699;DHT22;20032;52.436;13.312;2023-10-09T06:05:02;10.60;99.90
33699;DHT22;20032;52.436;13.312;2023-10-09T06:07:45;10.50;99.90
33699;DHT22;20032;52.436;13.312;2023-10-09T06:10:29;10.60;99.90
33699;DHT22;20032;52.436;13.312;2023-10-09T06:13:05;10.60;99.90
33699;DHT22;20032;52.436;13.312;2023-10-09T06:15:36;10.60;99.90
33699;DHT22;20032;52.436;13.312;2023-10-09T06:18:22;10.60;99.90
33699;DHT22;20032;52.436;13.312;2023-10-09T06:21:07;10.60;99.90
33699;DHT22;20032;52.436;13.312;2023-10-09T06:23:52;10.60;99.90
33699;DHT22;20032;52.436;13.312;2023-10-09T06:26:37;10.60;99.90
33699;DHT22;20032;52.436;13.312;2023-10-09T06:29:03;10.50;99.90
33699;DHT22;20032;52.436;13.312;2023-10-09T06:31:49;10.60;99.90
33699;DHT22;20032;52.436;13.312;2023-10-09T06:34:34;10.60;99.90
33699;DHT22;20032;52.436;13.312;2023-10-09T06:37:01;10.60;99.90
33699;DHT22;20032;52.436;13.312;2023-10-09T06:39:34;10.70;99.90
33699;DHT22;20032;52.436;13.312;2023-10-09T06:42:16;10.80;99.90
33699;DHT22;20032;52.436;13.312;2023-10-09T06:45:03;10.80;99.90
33699;DHT22;20032;52.436;13.312;2023-10-09T06:47:47;10.70;99.90
33699;DHT22;20032;52.436;13.312;2023-10-09T06:50:22;10.70;99.90
33699;DHT22;20032;52.436;13.312;2023-10-09T06:52:49;10.70;99.90
33699;DHT22;20032;52.436;13.312;2023-10-09T06:55:36;10.70;99.90
33699;DHT22;20032;52.436;13.312;2023-10-09T06:58:14;10.70;99.90
33699;DHT22;20032;52.436;13.312;2023-10-09T07:00:49;10.80;99.90
33699;DHT22;20032;52.436;13.312;2023-10-09T07:03:34;10.80;99.90
33699;DHT22;20032;52.436;13.312;2023-10-09T07:06:09;10.70;99.90
33699;DHT22;20032;52.436;13.312;2023-10-09T07:08:36;10.70;99.90
33699;DHT22;20032;52.436;13.312;2023-10-09T07:11:03;10.80;99.90
33699;DHT22;20032;52.436;13.312;2023-10-09T07:13:49;10.70;99.90
33699;DHT22;20032;52.436;13.312;2023-10-09T07:16:24;10.70;99.90
33699;DHT22;20032;52.436;13.312;2023-10-09T07:18:56;10.70;99.90
33699;DHT22;20032;52.436;13.312;2023-10-09T07:21:35;10.70;99.90
33699;DHT22;20032;52.436;13.312;2023-10-09T07:24:00;10.80;99.90
33699;DHT22;20032;52.436;13.312;2023-10-09T07:26:40;10.80;99.90
33699;DHT22;20032;52.436;13.312;2023-10-09T07:29:13;10.70;99.90
33699;DHT22;20032;52.436;13.312;2023-10-09T07:31:42;10.80;99.90
33699;DHT22;20032;52.436;13.312;2023-10-09T07:34:10;10.80;99.90
33699;DHT22;20032;52.436;13.312;2023-10-09T07:36:56;10.90;99.90
33699;DHT22;20032;52.436;13.312;2023-10-09T07:39:22;10.90;99.90
33699;DHT22;20032;52.436;13.312;2023-10-09T07:41:48;10.90;99.90
33699;DHT22;20032;52.436;13.312;2023-10-09T07:44:21;10.90;99.90
33699;DHT22;20032;52.436;13.312;2023-10-09T07:47:03;11.00;99.90
33699;DHT22;20032;52.436;13.312;2023-10-09T07:49:50;11.10;99.90
33699;DHT22;20032;52.436;13.312;2023-10-09T07:52:18;11.10;99.90
33699;DHT22;20032;52.436;13.312;2023-10-09T07:54:47;11.10;99.90
33699;DHT22;20032;52.436;13.312;2023-10-09T07:57:19;11.10;99.90
33699;DHT22;20032;52.436;13.312;2023-10-09T07:59:51;11.10;99.90
33699;DHT22;20032;52.436;13.312;2023-10-09T08:02:21;11.20;99.90
33699;DHT22;20032;52.436;13.312;2023-10-09T08:04:59;11.20;99.90
33699;DHT22;20032;52.436;13.312;2023-10-09T08:07:29;11.20;99.90
33699;DHT22;20032;52.436;13.312;2023-10-09T08:10:04;11.20;99.90
33699;DHT22;20032;52.436;13.312;2023-10-09T08:12:47;11.20;99.90
33699;DHT22;20032;52.436;13.312;2023-10-09T08:15:13;11.30;99.90
33699;DHT22;20032;52.436;13.312;2023-10-09T08:17:47;11.40;99.90
33699;DHT22;20032;52.436;13.312;2023-10-09T08:20:23;11.40;99.90
33699;DHT22;20032;52.436;13.312;2023-10-09T08:22:53;11.30;99.90
33699;DHT22;20032;52.436;13.312;2023-10-09T08:25:23;11.30;99.90
33699;DHT22;20032;52.436;13.312;2023-10-09T08:27:54;11.30;99.90
33699;DHT22;20032;52.436;13.312;2023-10-09T08:30:22;11.30;99.90
33699;DHT22;20032;52.436;13.312;2023-10-09T08:32:52;11.30;99.90
33699;DHT22;20032;52.436;13.312;2023-10-09T08:35:43;11.20;99.90
33699;DHT22;20032;52.436;13.312;2023-10-09T08:38:15;11.30;99.90
33699;DHT22;20032;52.436;13.312;2023-10-09T08:40:48;11.30;99.90
33699;DHT22;20032;52.436;13.312;2023-10-09T08:43:18;11.20;99.90
33699;DHT22;20032;52.436;13.312;2023-10-09T08:46:00;11.20;99.90
33699;DHT22;20032;52.436;13.312;2023-10-09T08:48:27;11.20;99.90
33699;DHT22;20032;52.436;13.312;2023-10-09T08:50:54;11.20;99.90
33699;DHT22;20032;52.436;13.312;2023-10-09T08:53:21;11.20;99.90
33699;DHT22;20032;52.436;13.312;2023-10-09T08:55:47;11.30;99.90
33699;DHT22;20032;52.436;13.312;2023-10-09T08:58:14;11.30;99.90
33699;DHT22;20032;52.436;13.312;2023-10-09T09:01:00;11.30;99.90
33699;DHT22;20032;52.436;13.312;2023-10-09T09:03:26;11.30;99.90
33699;DHT22;20032;52.436;13.312;2023-10-09T09:06:00;11.30;99.90
33699;DHT22;20032;52.436;13.312;2023-10-09T09:08:27;11.30;99.90
33699;DHT22;20032;52.436;13.312;2023-10-09T09:11:12;11.40;99.90
33699;DHT22;20032;52.436;13.312;2023-10-09T09:13:42;11.40;99.90
33699;DHT22;20032;52.436;13.312;2023-10-09T09:16:22;11.50;99.90
33699;DHT22;20032;52.436;13.312;2023-10-09T09:18:54;11.50;99.90
33699;DHT22;20032;52.436;13.312;2023-10-09T09:21:39;11.50;99.90
33699;DHT22;20032;52.436;13.312;2023-10-09T09:24:08;11.40;99.90
33699;DHT22;20032;52.436;13.312;2023-10-09T09:26:54;11.50;99.90
33699;DHT22;20032;52.436;13.312;2023-10-09T09:29:38;11.50;99.90
33699;DHT22;20032;52.436;13.312;2023-10-09T09:32:06;11.50;99.90
33699;DHT22;20032;52.436;13.312;2023-10-09T09:34:45;11.50;99.90
33699;DHT22;20032;52.436;13.312;2023-10-09T09:37:19;11.50;99.90
33699;DHT22;20032;52.436;13.312;2023-10-09T09:39:46;11.40;99.90
33699;DHT22;20032;52.436;13.312;2023-10-09T09:42:19;11.40;99.90
33699;DHT22;20032;52.436;13.312;2023-10-09T09:44:51;11.50;99.90
33699;DHT22;20032;52.436;13.312;2023-10-09T09:47:17;11.40;99.90
33699;DHT22;20032;52.436;13.312;2023-10-09T09:50:01;11.40;99.90
33699;DHT22;20032;52.436;13.312;2023-10-09T09:52:36;11.50;99.90
33699;DHT22;20032;52.436;13.312;2023-10-09T09:55:06;11.50;99.90
33699;DHT22;20032;52.436;13.312;2023-10-09T09:57:38;11.50;99.90
33699;DHT22;20032;52.436;13.312;2023-10-09T10:00:08;11.60;99.90
33699;DHT22;20032;52.436;13.312;2023-10-09T10:02:36;11.60;99.90
33699;DHT22;20032;52.436;13.312;2023-10-09T10:05:08;11.60;99.90
33699;DHT22;20032;52.436;13.312;2023-10-09T10:07:37;11.70;99.90
33699;DHT22;20032;52.436;13.312;2023-10-09T10:10:36;11.70;99.90
33699;DHT22;20032;52.436;13.312;2023-10-09T10:13:03;11.60;99.90
33699;DHT22;20032;52.436;13.312;2023-10-09T10:18:24;11.60;99.90
33699;DHT22;20032;52.436;13.312;2023-10-09T10:21:11;11.60;99.90
33699;DHT22;20032;52.436;13.312;2023-10-09T10:23:41;11.70;99.90
33699;DHT22;20032;52.436;13.312;2023-10-09T10:26:23;11.70;99.90
33699;DHT22;20032;52.436;13.312;2023-10-09T10:29:19;11.70;99.90
33699;DHT22;20032;52.436;13.312;2023-10-09T10:31:57;11.70;99.90
33699;DHT22;20032;52.436;13.312;2023-10-09T10:34:25;11.70;99.90
33699;DHT22;20032;52.436;13.312;2023-10-09T10:36:52;11.80;99.90
33699;DHT22;20032;52.436;13.312;2023-10-09T10:39:24;11.80;99.90
33699;DHT22;20032;52.436;13.312;2023-10-09T10:42:08;11.80;99.90
33699;DHT22;20032;52.436;13.312;2023-10-09T10:44:35;11.80;99.90
33699;DHT22;20032;52.436;13.312;2023-10-09T10:47:05;11.80;99.90
33699;DHT22;20032;52.436;13.312;2023-10-09T10:49:32;11.80;99.90
33699;DHT22;20032;52.436;13.312;2023-10-09T10:52:06;11.80;99.90
33699;DHT22;20032;52.436;13.312;2023-10-09T10:54:47;11.70;99.90
33699;DHT22;20032;52.436;13.312;2023-10-09T10:57:35;11.70;99.90
33699;DHT22;20032;52.436;13.312;2023-10-09T11:00:18;11.70;99.90
33699;DHT22;20032;52.436;13.312;2023-10-09T11:03:04;11.70;99.90
33699;DHT22;20032;52.436;13.312;2023-10-09T11:05:49;11.70;99.90
33699;DHT22;20032;52.436;13.312;2023-10-09T11:08:17;11.80;99.90
33699;DHT22;20032;52.436;13.312;2023-10-09T11:10:51;11.80;99.90
33699;DHT22;20032;52.436;13.312;2023-10-09T11:13:26;11.80;99.90
33699;DHT22;20032;52.436;13.312;2023-10-09T11:16:00;11.90;99.90
33699;DHT22;20032;52.436;13.312;2023-10-09T11:18:46;11.90;99.90
33699;DHT22;20032;52.436;13.312;2023-10-09T11:21:14;11.90;99.90
33699;DHT22;20032;52.436;13.312;2023-10-09T11:23:42;11.90;99.90
33699;DHT22;20032;52.436;13.312;2023-10-09T11:26:24;11.90;99.90
33699;DHT22;20032;52.436;13.312;2023-10-09T11:29:14;11.90;99.90
33699;DHT22;20032;52.436;13.312;2023-10-09T11:32:15;11.90;99.90
33699;DHT22;20032;52.436;13.312;2023-10-09T11:34:31;12.00;99.90
33699;DHT22;20032;52.436;13.312;2023-10-09T11:37:00;12.00;99.90
33699;DHT22;20032;52.436;13.312;2023-10-09T11:39:28;12.10;99.90
33699;DHT22;20032;52.436;13.312;2023-10-09T11:42:04;12.30;99.90
33699;DHT22;20032;52.436;13.312;2023-10-09T11:44:45;12.50;99.90
33699;DHT22;20032;52.436;13.312;2023-10-09T11:47:11;12.50;99.90
33699;DHT22;20032;52.436;13.312;2023-10-09T11:49:52;12.50;99.90
33699;DHT22;20032;52.436;13.312;2023-10-09T11:52:56;12.40;99.90
33699;DHT22;20032;52.436;13.312;2023-10-09T11:55:34;12.40;99.90
33699;DHT22;20032;52.436;13.312;2023-10-09T11:58:00;12.40;99.90
33699;DHT22;20032;52.436;13.312;2023-10-09T12:00:27;12.50;99.90
33699;DHT22;20032;52.436;13.312;2023-10-09T12:02:55;12.50;99.90
33699;DHT22;20032;52.436;13.312;2023-10-09T12:05:22;12.40;99.90
33699;DHT22;20032;52.436;13.312;2023-10-09T12:07:49;12.40;99.90
33699;DHT22;20032;52.436;13.312;2023-10-09T12:10:22;12.40;99.90
33699;DHT22;20032;52.436;13.312;2023-10-09T12:12:52;12.40;99.90
33699;DHT22;20032;52.436;13.312;2023-10-09T12:15:18;12.40;99.90
33699;DHT22;20032;52.436;13.312;2023-10-09T12:17:44;12.40;99.90
33699;DHT22;20032;52.436;13.312;2023-10-09T12:20:13;12.40;99.90
33699;DHT22;20032;52.436;13.312;2023-10-09T12:23:02;12.40;99.90
33699;DHT22;20032;52.436;13.312;2023-10-09T12:25:33;12.30;99.90
33699;DHT22;20032;52.436;13.312;2023-10-09T12:27:59;12.30;99.90
33699;DHT22;20032;52.436;13.312;2023-10-09T12:30:27;12.20;99.90
33699;DHT22;20032;52.436;13.312;2023-10-09T12:32:56;12.20;99.90
33699;DHT22;20032;52.436;13.312;2023-10-09T12:35:24;12.30;99.90
33699;DHT22;20032;52.436;13.312;2023-10-09T12:37:52;12.20;99.90
33699;DHT22;20032;52.436;13.312;2023-10-09T12:40:21;12.20;99.90
33699;DHT22;20032;52.436;13.312;2023-10-09T12:42:52;12.30;99.90
33699;DHT22;20032;52.436;13.312;2023-10-09T12:45:18;12.20;99.90
33699;DHT22;20032;52.436;13.312;2023-10-09T12:47:51;12.20;99.90
33699;DHT22;20032;52.436;13.312;2023-10-09T12:50:16;12.20;99.90
33699;DHT22;20032;52.436;13.312;2023-10-09T12:52:53;12.30;99.90
33699;DHT22;20032;52.436;13.312;2023-10-09T12:55:19;12.30;99.90
33699;DHT22;20032;52.436;13.312;2023-10-09T12:57:46;12.30;99.90
33699;DHT22;20032;52.436;13.312;2023-10-09T13:00:14;12.20;99.90
33699;DHT22;20032;52.436;13.312;2023-10-09T13:02:51;12.20;99.90
33699;DHT22;20032;52.436;13.312;2023-10-09T13:05:16;12.20;99.90
33699;DHT22;20032;52.436;13.312;2023-10-09T13:07:52;12.20;99.90
33699;DHT22;20032;52.436;13.312;2023-10-09T13:10:18;12.10;99.90
33699;DHT22;20032;52.436;13.312;2023-10-09T13:12:44;12.10;99.90
33699;DHT22;20032;52.436;13.312;2023-10-09T13:15:11;12.00;99.90
33699;DHT22;20032;52.436;13.312;2023-10-09T13:17:37;12.00;99.90
33699;DHT22;20032;52.436;13.312;2023-10-09T13:20:03;12.00;99.90
33699;DHT22;20032;52.436;13.312;2023-10-09T13:22:39;12.00;99.90
33699;DHT22;20032;52.436;13.312;2023-10-09T13:25:07;12.00;99.90
33699;DHT22;20032;52.436;13.312;2023-10-09T13:27:32;12.00;99.90
33699;DHT22;20032;52.436;13.312;2023-10-09T13:30:05;12.10;99.90
33699;DHT22;20032;52.436;13.312;2023-10-09T13:32:34;12.10;99.90
33699;DHT22;20032;52.436;13.312;2023-10-09T13:35:02;12.10;99.90
33699;DHT22;20032;52.436;13.312;2023-10-09T13:37:28;12.10;99.90
33699;DHT22;20032;52.436;13.312;2023-10-09T13:39:56;12.10;99.90
33699;DHT22;20032;52.436;13.312;2023-10-09T13:42:22;12.10;99.90
33699;DHT22;20032;52.436;13.312;2023-10-09T13:44:51;12.10;99.90
33699;DHT22;20032;52.436;13.312;2023-10-09T13:47:19;12.20;99.90
33699;DHT22;20032;52.436;13.312;2023-10-09T13:49:48;12.20;99.90
33699;DHT22;20032;52.436;13.312;2023-10-09T13:52:18;12.20;99.90
33699;DHT22;20032;52.436;13.312;2023-10-09T13:54:45;12.20;99.90
33699;DHT22;20032;52.436;13.312;2023-10-09T13:57:13;12.20;99.90
33699;DHT22;20032;52.436;13.312;2023-10-09T13:59:41;12.20;99.90
33699;DHT22;20032;52.436;13.312;2023-10-09T14:02:14;12.10;99.90
33699;DHT22;20032;52.436;13.312;2023-10-09T14:04:43;12.10;99.90
33699;DHT22;20032;52.436;13.312;2023-10-09T14:07:09;12.10;99.90
33699;DHT22;20032;52.436;13.312;2023-10-09T14:09:34;12.10;99.90
33699;DHT22;20032;52.436;13.312;2023-10-09T14:12:04;12.10;99.90
33699;DHT22;20032;52.436;13.312;2023-10-09T14:17:04;12.10;99.90
33699;DHT22;20032;52.436;13.312;2023-10-09T14:19:37;12.00;99.90
33699;DHT22;20032;52.436;13.312;2023-10-09T14:22:03;12.00;99.90
33699;DHT22;20032;52.436;13.312;2023-10-09T14:24:31;12.10;99.90
33699;DHT22;20032;52.436;13.312;2023-10-09T14:26:59;12.10;99.90
33699;DHT22;20032;52.436;13.312;2023-10-09T14:29:25;12.10;99.90
33699;DHT22;20032;52.436;13.312;2023-10-09T14:31:52;12.10;99.90
33699;DHT22;20032;52.436;13.312;2023-10-09T14:34:26;12.20;99.90
33699;DHT22;20032;52.436;13.312;2023-10-09T14:36:58;12.10;99.90
33699;DHT22;20032;52.436;13.312;2023-10-09T14:39:26;12.10;99.90
33699;DHT22;20032;52.436;13.312;2023-10-09T14:41:53;12.10;99.90
33699;DHT22;20032;52.436;13.312;2023-10-09T14:44:20;12.10;99.90
33699;DHT22;20032;52.436;13.312;2023-10-09T14:46:46;12.20;99.90
33699;DHT22;20032;52.436;13.312;2023-10-09T14:49:12;12.20;99.90
33699;DHT22;20032;52.436;13.312;2023-10-09T14:51:39;12.20;99.90
33699;DHT22;20032;52.436;13.312;2023-10-09T14:54:05;12.10;99.90
33699;DHT22;20032;52.436;13.312;2023-10-09T14:56:33;12.10;99.90
33699;DHT22;20032;52.436;13.312;2023-10-09T14:59:02;12.10;99.90
33699;DHT22;20032;52.436;13.312;2023-10-09T15:01:29;12.10;99.90
33699;DHT22;20032;52.436;13.312;2023-10-09T15:03:58;12.20;99.90
33699;DHT22;20032;52.436;13.312;2023-10-09T15:06:25;12.20;99.90
33699;DHT22;20032;52.436;13.312;2023-10-09T15:08:54;12.20;99.90
33699;DHT22;20032;52.436;13.312;2023-10-09T15:11:25;12.20;99.90
33699;DHT22;20032;52.436;13.312;2023-10-09T15:13:52;12.20;99.90
33699;DHT22;20032;52.436;13.312;2023-10-09T15:16:18;12.20;99.90
33699;DHT22;20032;52.436;13.312;2023-10-09T15:18:48;12.10;99.90
33699;DHT22;20032;52.436;13.312;2023-10-09T15:21:19;12.10;99.90
33699;DHT22;20032;52.436;13.312;2023-10-09T15:23:59;12.00;99.90
33699;DHT22;20032;52.436;13.312;2023-10-09T15:26:24;11.90;99.90
33699;DHT22;20032;52.436;13.312;2023-10-09T15:28:51;11.80;99.90
33699;DHT22;20032;52.436;13.312;2023-10-09T15:31:17;11.90;99.90
33699;DHT22;20032;52.436;13.312;2023-10-09T15:33:44;11.90;99.90
33699;DHT22;20032;52.436;13.312;2023-10-09T15:36:12;11.90;99.90
33699;DHT22;20032;52.436;13.312;2023-10-09T15:38:38;11.80;99.90
33699;DHT22;20032;52.436;13.312;2023-10-09T15:41:04;11.90;99.90
33699;DHT22;20032;52.436;13.312;2023-10-09T15:43:31;11.90;99.90
33699;DHT22;20032;52.436;13.312;2023-10-09T15:45:59;11.90;99.90
33699;DHT22;20032;52.436;13.312;2023-10-09T15:48:24;11.90;99.90
33699;DHT22;20032;52.436;13.312;2023-10-09T15:50:50;11.90;99.90
33699;DHT22;20032;52.436;13.312;2023-10-09T15:53:17;11.90;99.90
33699;DHT22;20032;52.436;13.312;2023-10-09T15:55:44;11.80;99.90
33699;DHT22;20032;52.436;13.312;2023-10-09T15:58:09;11.80;99.90